KCXY

Capital City Airport

Harrisburg, Pennsylvania, USA
METAR KCXY 201456Z 00000KT 3/4SM R08/6000VP6000FT BR OVC004 09/08 A3035 RMK AO2 SLP278 VSBY N 1/4SM T00890083 50001
Observed Flight Rules
Feb-20 @ 14:56 UTC (5 hours ago) Instrument Flight Rules
Wind Visibility Clouds Conditions
Calm 3/4 miles
  • Overcast at 400' AGL
  • Mist
Temperatures Readings
Current 9°C / 48°F
Dewpoint 8°C / 46°F
Humidity 94%
Altimeter 30.35" Hg
Pressure 1027.8 hPa
Elevation 106
METAR KCXY 201456Z 00000KT 3/4SM R08/6000VP6000FT BR OVC004 09/08 A3035 RMK AO2 SLP278 VSBY N 1/4SM T00890083 50001
Observed Flight Rules
Feb-20 @ 14:56 UTC
(5 hours ago)
LIFR
Wind Visibility
Calm 3/4 miles
Clouds
  • Overcast at 400' AGL
Conditions
  • Mist
Temperature Dewpoint
9°C / 48°F 8°C / 46°F
Humidity Altimeter Pressure
94% 30.35" Hg 1027.8 hPa